KMXF/MXF METAR and TAF weather

Enter ICAO airport designator
Station Type Date Time Source
KMXF METAR 2020/09/25 07:56 UTC NOAA

KMXF 250756Z AUTO 23005KT 10SM OVC036 21/18 A2989 RMK AO2 SLP123 T02130183


Station Type Date Time Source
KMXF Decoded METAR 2020/09/25 07:56 UTC NOAA

Maxwell Air Force Base / Montgomery, AL, United States (KMXF) 32-23N 086-22W
Sep 25, 2020 - 03:56 AM EDT / 2020.09.25 0756 UTC
Wind: from the SW (230 degrees) at 6 MPH (5 KT):0
Visibility: 10 mile(s):0
Sky conditions: overcast
Temperature: 70.3 F (21.3 C)
Dew Point: 64.9 F (18.3 C)
Relative Humidity: 83%
Pressure (altimeter): 29.89 in. Hg (1012 hPa)
ob: KMXF 250756Z AUTO 23005KT 10SM OVC036 21/18 A2989 RMK AO2 SLP123 T02130183
cycle: 8

Station Type Date Time Source
KMXF TAF 2020/09/24 19:10 UTC NOAA

TAF KMXF 241900Z 2419/2601 12012G18KT 9999 VCSH OVC020 QNH2977INS
BECMG 2500/2501 17009KT 9999 NSW SCT015 OVC020 QNH2976INS
BECMG 2508/2509 VRB06KT 8000 BR BKN010 QNH2986INS
BECMG 2511/2512 VRB06KT 8000 BR OVC003 QNH2990INS
BECMG 2514/2515 24009KT 9999 NSW FEW025 BKN030 QNH2994INS TX27/2421Z TN20/2512Z LAST NO
AMDS AFT 2423 NEXT 2511

Example: see airport list